Latest Weather Observations for Charlton

IDV60801

Issued at 2:02 pm EST Wednesday 2 September 2015 (issued every 30 minutes, with the page automatically refreshed every 10 minutes)

About weather observations | Map of weather stations | Latest weather observations for VIC | Other Formats
Station Details ID: 080128 Name: CHARLTON Lat: -36.28 Lon: 143.33 Height: 131.7 m
Data from the previous 72 hours. | See also: Recent months at Charlton
Date/Time
EST
Temp
°C
App
Temp
°C
Dew
Point
Rel
Hum
%
Delta-T
°C
Wind Press
QNH
hPa
Press
MSL
hPa
Rain
since 9 am
mm
Dir
 
Spd
km/h
Gust
km/h
Spd
kts
Gust
kts
02/02:00pm 10.5 8.7 9.6 94 0.5 NE 9 15 5 8 1006.9 1006.9 0.0
02/01:30pm 10.6 8.3 8.9 89 0.8 NE 11 17 6 9 1007.2 1007.2 0.0
02/01:00pm 11.6 8.6 7.7 77 1.9 NNE 13 19 7 10 1007.6 1007.6 0.0
02/12:30pm 12.1 8.5 6.8 70 2.5 ENE 15 24 8 13 1007.4 1007.4 0.0
02/12:00pm 13.0 8.9 6.4 64 3.2 NE 17 32 9 17 1008.2 1008.2 0.0
02/11:30am 12.9 9.0 6.9 67 2.9 ENE 17 24 9 13 1008.7 1008.7 0.0
02/11:00am 12.0 7.9 6.3 68 2.7 ENE 17 26 9 14 1009.3 1009.4 0.0
02/10:30am 11.8 7.6 5.9 67 2.8 NE 17 26 9 14 1009.6 1009.7 0.0
02/10:00am 11.4 8.0 5.9 69 2.6 NE 13 20 7 11 1010.1 1010.2 0.0
02/09:30am 10.8 7.0 5.6 70 2.4 NE 15 24 8 13 1010.6 1010.6 0.0
02/09:00am 10.8 6.5 5.3 69 2.5 NE 17 28 9 15 1010.8 1010.8 0.0
02/08:30am 9.9 5.9 5.1 72 2.2 NE 15 24 8 13 1010.8 1010.8 0.0
02/08:00am 9.5 5.6 5.3 75 1.9 ENE 15 22 8 12 1010.8 1010.8 0.0
02/07:30am 10.3 5.5 4.5 67 2.6 NE 19 32 10 17 1010.7 1010.7 0.0
02/07:00am 10.2 5.7 4.4 67 2.6 NE 17 28 9 15 1010.8 1010.8 0.0
02/06:30am 10.0 5.5 4.2 67 2.6 NE 17 26 9 14 1010.8 1010.8 0.0
02/06:00am 10.0 5.9 4.2 67 2.6 NE 15 22 8 12 1011.3 1011.3 0.0
02/05:30am 10.0 5.5 4.0 66 2.7 NE 17 24 9 13 1011.3 1011.3 0.0
02/05:00am 10.0 5.5 4.0 66 2.7 NE 17 26 9 14 1011.3 1011.3 0.0
02/04:30am 10.2 5.6 3.9 65 2.8 NE 17 24 9 13 1011.3 1011.3 0.0
02/04:00am 10.4 5.8 3.9 64 2.9 NE 17 24 9 13 1011.3 1011.3 0.0
02/03:30am 10.5 6.0 4.0 64 2.9 NE 17 24 9 13 1011.6 1011.6 0.0
02/03:00am 10.8 6.6 4.0 63 3.0 NE 15 22 8 12 1011.8 1011.8 0.0
02/02:30am 11.1 6.9 3.9 61 3.2 NE 15 26 8 14 1012.2 1012.2 0.0
02/02:00am 11.2 7.0 4.0 61 3.2 NE 15 28 8 15 1012.3 1012.3 0.0
02/01:30am 11.0 6.5 4.0 62 3.1 NE 17 24 9 13 1012.6 1012.6 0.0
02/01:00am 10.7 6.9 3.7 62 3.1 NE 13 17 7 9 1012.7 1012.7 0.0
02/12:30am 11.0 7.2 3.8 61 3.2 NE 13 20 7 11 1013.0 1013.0 0.0
02/12:00am 11.4 7.6 3.7 59 3.4 NE 13 20 7 11 1013.1 1013.1 0.0
 
Date/Time
EST
Temp
°C
App
Temp
°C
Dew
Point
Rel
Hum
%
Delta-T
°C
Wind Press
QNH
hPa
Press
MSL
hPa
Rain
since 9 am
mm
Dir
 
Spd
km/h
Gust
km/h
Spd
kts
Gust
kts
01/11:30pm 11.5 7.7 3.8 59 3.4 NE 13 17 7 9 1013.2 1013.2 0.0
01/11:00pm 11.8 7.6 3.8 58 3.6 NE 15 20 8 11 1013.1 1013.1 0.0
01/10:30pm 12.0 8.2 3.8 57 3.7 NE 13 20 7 11 1013.2 1013.2 0.0
01/10:00pm 11.9 8.1 3.9 58 3.6 NE 13 17 7 9 1013.1 1013.1 0.0
01/09:30pm 12.3 8.5 3.8 56 3.8 NE 13 20 7 11 1013.3 1013.3 0.0
01/09:00pm 12.9 9.1 3.8 54 4.1 NE 13 19 7 10 1013.3 1013.3 0.0
01/08:30pm 13.9 9.7 3.9 51 4.6 NE 15 24 8 13 1013.2 1013.2 0.0
01/08:00pm 14.1 10.7 3.8 50 4.7 NE 11 15 6 8 1013.0 1013.0 0.0
01/07:30pm 14.4 11.0 3.8 49 4.9 NE 11 17 6 9 1012.8 1012.8 0.0
01/07:00pm 14.7 11.3 3.8 48 5.0 NE 11 15 6 8 1012.8 1012.8 0.0
01/06:30pm 15.4 11.8 3.2 44 5.6 NE 11 13 6 7 1012.7 1012.7 0.0
01/06:00pm 16.5 13.2 2.2 38 6.5 NE 9 13 5 7 1012.4 1012.4 0.0
01/05:30pm 17.5 13.7 1.9 35 7.1 NNE 11 17 6 9 1012.0 1012.0 0.0
01/05:00pm 17.8 13.5 1.3 33 7.4 NNE 13 20 7 11 1011.9 1011.9 0.0
01/04:30pm 18.2 13.9 1.3 32 7.6 NNE 13 20 7 11 1012.1 1012.1 0.0
01/04:00pm 17.8 14.1 2.2 35 7.1 NNE 11 17 6 9 1012.5 1012.5 0.0
01/03:30pm 18.3 14.4 1.3 32 7.6 NNE 11 20 6 11 1012.6 1012.6 0.0
01/03:00pm 18.2 14.5 2.1 34 7.4 N 11 20 6 11 1013.1 1013.1 0.0
01/02:30pm 18.5 15.9 3.2 36 7.2 NNW 6 11 3 6 1013.3 1013.3 0.0
01/02:00pm 18.1 15.0 3.6 38 6.8 N 9 15 5 8 1013.5 1013.5 0.0
01/01:30pm 17.6 14.2 4.2 41 6.4 N 11 15 6 8 1014.1 1014.1 0.0
01/01:00pm 16.5 13.1 3.9 43 5.9 NNW 11 20 6 11 1015.0 1015.0 0.0
01/12:30pm 15.3 11.6 4.4 48 5.1 NNE 13 17 7 9 1015.7 1015.8 0.0
01/12:00pm 14.6 11.2 4.0 49 4.9 N 11 20 6 11 1016.3 1016.4 0.0
01/11:30am 13.9 10.6 4.5 53 4.4 NNE 11 15 6 8 1016.3 1016.4 0.0
01/11:00am 12.5 8.7 4.0 56 3.9 NE 13 17 7 9 1016.4 1016.5 0.0
01/10:30am 11.8 8.5 4.3 60 3.4 NNE 11 17 6 9 1016.8 1016.9 0.0
01/10:00am 10.4 6.6 3.9 64 2.9 NNE 13 19 7 10 1017.2 1017.3 0.0
01/09:30am 9.2 5.0 3.8 69 2.4 NNE 15 20 8 11 1017.4 1017.6 0.0
01/09:00am 7.9 4.8 3.4 73 1.9 NE 9 13 5 7 1017.6 1017.8 0.0
01/08:30am 5.1 3.7 3.6 90 0.6 CALM 0 0 0 0 1017.5 1017.7 0.0
01/08:00am 2.2 0.5 2.1 99 0.0 CALM 0 0 0 0 1017.4 1017.6 0.0
01/07:30am -0.6 -2.7 -0.7 99 0.0 CALM 0 0 0 0 1017.1 1017.3 0.0
01/07:00am -1.5 -3.7 -1.6 99 0.0 CALM 0 0 0 0 1017.0 1017.2 0.0
01/06:30am -1.3 -3.5 -1.4 99 0.0 CALM 0 0 0 0 1016.7 1016.9 0.0
01/06:00am -1.2 -3.4 -1.3 99 0.0 CALM 0 0 0 0 1016.6 1016.8 0.0
01/05:30am -0.7 -2.8 -0.8 99 0.0 CALM 0 0 0 0 1016.6 1016.8 0.0
01/05:00am -0.4 -2.5 -0.5 99 0.0 CALM 0 0 0 0 1016.5 1016.7 0.0
01/04:30am -0.1 -2.1 -0.2 99 0.0 CALM 0 0 0 0 1016.5 1016.7 0.0
01/04:00am -0.2 -2.2 -0.3 99 0.0 CALM 0 0 0 0 1016.6 1016.8 0.0
01/03:30am 0.3 -1.7 0.2 99 0.0 CALM 0 0 0 0 1016.8 1017.0 0.0
01/03:00am 0.4 -1.5 0.3 99 0.0 CALM 0 0 0 0 1017.0 1017.2 0.0
01/02:30am 0.1 -2.3 -0.5 96 0.2 S 2 7 1 4 1017.4 1017.6 0.0
01/02:00am 1.2 -0.6 0.9 98 0.1 CALM 0 0 0 0 1017.7 1017.9 0.0
01/01:30am 1.6 -0.2 1.3 98 0.1 CALM 0 0 0 0 1017.8 1018.0 0.0
01/01:00am 1.3 -0.6 0.6 95 0.3 CALM 0 0 0 0 1018.0 1018.2 0.0
01/12:30am 1.8 0.0 0.9 94 0.3 CALM 0 0 0 0 1018.2 1018.4 0.0
01/12:00am 2.1 0.3 0.9 92 0.5 CALM 0 0 0 0 1018.2 1018.4 0.0
 
Date/Time
EST
Temp
°C
App
Temp
°C
Dew
Point
Rel
Hum
%
Delta-T
°C
Wind Press
QNH
hPa
Press
MSL
hPa
Rain
since 9 am
mm
Dir
 
Spd
km/h
Gust
km/h
Spd
kts
Gust
kts
31/11:30pm 2.6 -0.3 1.3 91 0.5 S 6 7 3 4 1018.5 1018.6 0.0
31/11:00pm 3.7 0.3 1.7 87 0.8 ESE 9 11 5 6 1018.6 1018.7 0.0
31/10:30pm 3.3 1.2 1.7 89 0.6 S 2 6 1 3 1019.0 1019.1 0.0
31/10:00pm 3.7 1.6 1.9 88 0.7 SSW 2 6 1 3 1019.2 1019.3 0.0
31/09:30pm 4.0 2.0 2.2 88 0.7 SSW 2 7 1 4 1019.2 1019.3 0.0
31/09:00pm 4.4 2.6 1.4 81 1.2 CALM 0 0 0 0 1019.0 1019.1 0.0
31/08:30pm 5.2 2.8 2.2 81 1.2 SSW 4 7 2 4 1018.8 1018.9 0.0
31/08:00pm 5.8 3.4 2.1 77 1.5 SSW 4 7 2 4 1018.7 1018.8 0.0
31/07:30pm 7.4 4.5 2.5 71 2.1 SW 7 9 4 5 1018.6 1018.7 0.0
31/07:00pm 8.3 5.4 2.5 67 2.4 SW 7 9 4 5 1018.4 1018.5 0.0
31/06:30pm 9.4 6.1 2.7 63 2.9 SW 9 13 5 7 1018.2 1018.4 0.0
31/06:00pm 10.6 7.4 2.9 59 3.3 SW 9 15 5 8 1017.8 1018.0 0.0
31/05:30pm 12.1 8.9 3.3 55 3.9 SW 9 15 5 8 1017.8 1018.0 0.0
31/05:00pm 13.0 9.4 3.1 51 4.4 SW 11 19 6 10 1017.8 1018.0 0.0
31/04:30pm 13.5 9.7 4.1 53 4.3 SW 13 19 7 10 1017.9 1018.1 0.0
31/04:00pm 14.0 11.0 4.0 51 4.6 SW 9 17 5 9 1017.8 1018.0 0.0
31/03:30pm 13.7 9.9 4.0 52 4.4 SW 13 24 7 13 1018.1 1018.3 0.0
31/03:00pm 13.8 10.0 3.9 51 4.5 SW 13 19 7 10 1018.2 1018.4 0.0
31/02:30pm 13.3 9.5 3.9 53 4.3 SSW 13 20 7 11 1018.5 1018.6 0.0
31/02:00pm 13.5 10.1 4.1 53 4.3 WSW 11 17 6 9 1018.9 1019.0 0.0
31/01:30pm 13.0 9.6 3.9 54 4.1 SW 11 20 6 11 1019.5 1019.6 0.0
31/01:00pm 12.6 9.7 4.6 58 3.7 SW 9 17 5 9 1019.7 1019.8 0.0
31/12:30pm 11.6 8.5 3.4 57 3.6 SW 9 20 5 11 1020.3 1020.5 0.0
31/12:00pm 10.5 7.3 2.8 59 3.3 SW 9 15 5 8 1020.7 1020.9 0.0
31/11:30am 10.3 7.1 3.1 61 3.1 SSW 9 15 5 8 1021.2 1021.4 0.0
31/11:00am 9.3 6.1 2.9 64 2.7 SSW 9 15 5 8 1021.4 1021.6 0.0
31/10:30am 8.8 5.7 3.4 69 2.3 SSW 9 15 5 8 1021.6 1021.8 0.0
31/10:00am 8.5 5.1 3.8 72 2.0 S 11 17 6 9 1021.8 1022.0 0.0
31/09:30am 7.6 4.1 3.5 75 1.8 S 11 19 6 10 1021.8 1022.0 0.0
31/09:00am 6.3 3.3 4.3 87 0.9 SSW 9 13 5 7 1021.8 1022.0 0.0
31/08:30am 3.7 1.2 3.6 99 0.0 S 6 7 3 4 1021.8 1022.0 0.0
31/08:00am 1.8 0.1 1.7 99 0.0 CALM 0 0 0 0 1021.9 1022.1 0.0
31/07:30am -0.9 -3.0 -1.0 99 0.0 CALM 0 0 0 0 1021.6 1021.8 0.0
31/07:00am -2.1 -4.4 -2.4 98 0.0 CALM 0 0 0 0 1021.5 1021.7 0.0
31/06:30am -0.7 -2.8 -0.8 99 0.0 CALM 0 0 0 0 1021.4 1021.6 0.0
31/06:00am -0.4 -2.5 -0.5 99 0.0 CALM 0 0 0 0 1021.3 1021.5 0.0
31/05:30am -0.4 -2.5 -0.5 99 0.0 CALM 0 0 0 0 1021.2 1021.4 0.0
31/05:00am -0.1 -2.1 -0.2 99 0.0 CALM 0 0 0 0 1021.1 1021.3 0.0
31/04:30am 0.1 -1.9 0.0 99 0.0 CALM 0 0 0 0 1021.1 1021.3 0.0
31/04:00am 0.7 -1.2 0.6 99 0.0 CALM 0 0 0 0 1021.1 1021.3 0.0
31/03:30am 1.5 -1.4 1.4 99 0.0 SW 6 7 3 4 1021.4 1021.6 0.0
31/03:00am 1.4 -1.5 1.3 99 0.0 SW 6 7 3 4 1021.7 1021.9 0.0
31/02:30am 1.4 -1.5 1.3 99 0.0 SW 6 7 3 4 1021.9 1022.1 0.0
31/02:00am 1.9 -1.0 1.6 98 0.1 SSW 6 7 3 4 1022.1 1022.3 0.0
31/01:30am 2.3 -0.5 2.0 98 0.1 SSW 6 7 3 4 1022.3 1022.5 0.0
31/01:00am 2.6 -0.2 2.3 98 0.1 SW 6 9 3 5 1022.5 1022.7 0.0
31/12:30am 3.0 0.3 2.7 98 0.1 SSW 6 9 3 5 1022.4 1022.6 0.0
31/12:00am 2.9 0.2 2.6 98 0.1 SSW 6 9 3 5 1022.6 1022.8 0.0
 
Date/Time
EST
Temp
°C
App
Temp
°C
Dew
Point
Rel
Hum
%
Delta-T
°C
Wind Press
QNH
hPa
Press
MSL
hPa
Rain
since 9 am
mm
Dir
 
Spd
km/h
Gust
km/h
Spd
kts
Gust
kts
30/11:30pm 2.8 0.1 2.4 97 0.2 SW 6 7 3 4 1022.7 1022.9 0.0
30/11:00pm 3.1 1.5 2.2 94 0.4 CALM 0 0 0 0 1022.9 1023.1 0.0
30/10:30pm 3.8 2.3 2.9 94 0.4 CALM 0 0 0 0 1023.2 1023.4 0.0
30/10:00pm 3.8 2.2 2.6 92 0.5 CALM 0 0 0 0 1023.2 1023.4 0.0
30/09:30pm 4.5 2.6 2.8 89 0.7 SW 2 6 1 3 1023.2 1023.4 0.0
30/09:00pm 5.3 2.7 3.3 87 0.8 SW 6 9 3 5 1023.3 1023.5 0.0
30/08:30pm 6.3 3.3 4.0 85 1.0 SSW 9 11 5 6 1023.0 1023.2 0.0
30/08:00pm 6.4 3.3 3.6 82 1.2 SSW 9 13 5 7 1023.1 1023.3 0.0
30/07:30pm 7.3 4.8 3.9 79 1.5 SSW 6 9 3 5 1023.0 1023.2 0.0
30/07:00pm 8.7 6.1 4.1 73 2.0 SSW 7 13 4 7 1022.7 1022.9 0.0
30/06:30pm 10.3 7.7 4.2 66 2.7 S 7 13 4 7 1022.5 1022.7 0.0
30/06:00pm 11.9 8.3 4.9 62 3.2 SSE 13 20 7 11 1022.3 1022.5 0.0
30/05:30pm 12.8 8.9 5.2 60 3.5 SSE 15 20 8 11 1022.0 1022.2 0.0
30/05:00pm 13.3 10.2 5.5 59 3.7 SSE 11 17 6 9 1022.0 1022.2 0.0
30/04:30pm 14.2 10.9 6.3 59 3.8 SE 13 20 7 11 1021.9 1022.1 0.0
30/04:00pm 15.2 12.6 6.0 54 4.4 SSW 9 15 5 8 1022.0 1022.2 0.0
30/03:30pm 14.0 10.8 5.1 55 4.2 S 11 17 6 9 1022.2 1022.4 0.0
30/03:00pm 14.1 11.6 4.7 53 4.4 SSE 7 15 4 8 1022.3 1022.5 0.0
30/02:30pm 14.3 11.2 5.4 55 4.2 SSE 11 17 6 9 1022.6 1022.8 0.0

Other Formats:

Comma delimited format used in spreadsheet applications
http://www.bom.gov.au/fwo/IDV60801/IDV60801.94839.axf

JavaScript Object Notation format (JSON) in row-major order
http://www.bom.gov.au/fwo/IDV60801/IDV60801.94839.json